Time;durP1;ratioP1;P1;durP2;ratioP2;P2;SDS_P1;SDS_P2;PMS_P1;PMS_P2;Temp;Humidity;BMP_temperature;BMP_pressure;BME280_temperature;BME280_humidity;BME280_pressure;Samples;Min_cycle;Max_cycle;Signal;HPM_P1;HPM_P2
2023/02/28 00:00:31;;;;;;;;;;;;;;;;;;5072641;28;19973;-65
2023/02/28 00:02:57;;;;;;;;;;;;;;;;;;5091241;28;19920;-65
2023/02/28 00:05:23;;;;;;;;;;;;;;;;;;5092779;28;19938;-65
2023/02/28 00:07:49;;;;;;;;;;;;;;;;;;5092705;28;19924;-65
2023/02/28 00:10:14;;;;;;;;;;;;;;;;;;5088902;28;20518;-65
2023/02/28 00:12:40;;;;;;;;;;;;;;;;;;5092543;28;19920;-65
2023/02/28 00:15:06;;;;;;;;;;;;;;;;;;5091752;28;19935;-65
2023/02/28 00:17:32;;;;;;;;;;;;;;;;;;5092712;28;19928;-65
2023/02/28 00:20:11;;;;;;;;;;;;;;;;;;5089988;28;20415;-65
2023/02/28 00:22:37;;;;;;;;;;;;;;;;;;5091575;28;20058;-65
2023/02/28 00:25:03;;;;;;;;;;;;;;;;;;5071681;28;19963;-65
2023/02/28 00:27:29;;;;;;;;;;;;;;;;;;5089338;28;20339;-65
2023/02/28 00:29:55;;;;;;;;;;;;;;;;;;5091401;28;20034;-65
2023/02/28 00:32:21;;;;;;;;;;;;;;;;;;5073033;28;19924;-65
2023/02/28 00:34:47;;;;;;;;;;;;;;;;;;5076615;28;20293;-65
2023/02/28 00:37:13;;;;;;;;;;;;;;;;;;5071909;28;19927;-65
2023/02/28 00:39:38;;;;;;;;;;;;;;;;;;5076800;28;20338;-65
2023/02/28 00:42:04;;;;;;;;;;;;;;;;;;5090431;28;19967;-65
2023/02/28 00:44:30;;;;;;;;;;;;;;;;;;5071576;28;19923;-65
2023/02/28 00:46:56;;;;;;;;;;;;;;;;;;5092640;28;20003;-65
2023/02/28 00:49:22;;;;;;;;;;;;;;;;;;5091420;28;19920;-65
2023/02/28 00:51:48;;;;;;;;;;;;;;;;;;5095096;28;20576;-65
2023/02/28 00:54:14;;;;;;;;;;;;;;;;;;5089466;28;19987;-65
2023/02/28 00:56:40;;;;;;;;;;;;;;;;;;5091088;28;20276;-65
2023/02/28 00:59:06;;;;;;;;;;;;;;;;;;5091985;28;19927;-65
2023/02/28 01:01:31;;;;;;;;;;;;;;;;;;5092601;28;19957;-65
2023/02/28 01:03:57;;;;;;;;;;;;;;;;;;5086824;28;19931;-65
2023/02/28 01:06:23;;;;;;;;;;;;;;;;;;5070285;28;19967;-65
2023/02/28 01:08:49;;;;;;;;;;;;;;;;;;5091708;28;19927;-65
2023/02/28 01:11:15;;;;;;;;;;;;;;;;;;5087636;28;19989;-65
2023/02/28 01:13:41;;;;;;;;;;;;;;;;;;5095477;28;20289;-65
2023/02/28 01:16:07;;;;;;;;;;;;;;;;;;5092590;28;19920;-65
2023/02/28 01:18:33;;;;;;;;;;;;;;;;;;5102506;28;19962;-65
2023/02/28 01:20:58;;;;;;;;;;;;;;;;;;5092919;28;19967;-65
2023/02/28 01:23:24;;;;;;;;;;;;;;;;;;5091543;28;19924;-65
2023/02/28 01:25:50;;;;;;;;;;;;;;;;;;5087973;28;20234;-65
2023/02/28 01:28:16;;;;;;;;;;;;;;;;;;5088300;28;20445;-65
2023/02/28 01:30:42;;;;;;;;;;;;;;;;;;5092192;28;19920;-65
2023/02/28 01:33:08;;;;;;;;;;;;;;;;;;5090040;28;19951;-65
2023/02/28 01:35:34;;;;;;;;;;;;;;;;;;5090977;28;20369;-65
2023/02/28 01:38:00;;;;;;;;;;;;;;;;;;5090305;28;19927;-65
2023/02/28 01:40:26;;;;;;;;;;;;;;;;;;5089035;28;19960;-65
2023/02/28 01:42:52;;;;;;;;;;;;;;;;;;5088453;28;20258;-65
2023/02/28 01:45:17;;;;;;;;;;;;;;;;;;5071911;28;19927;-65
2023/02/28 01:47:43;;;;;;;;;;;;;;;;;;5093367;28;19959;-66
2023/02/28 01:50:09;;;;;;;;;;;;;;;;;;5090301;28;20418;-65
2023/02/28 01:52:35;;;;;;;;;;;;;;;;;;5085203;28;20027;-65
2023/02/28 01:55:01;;;;;;;;;;;;;;;;;;5090384;28;20277;-65
2023/02/28 01:57:27;;;;;;;;;;;;;;;;;;5088154;28;20570;-65
2023/02/28 01:59:53;;;;;;;;;;;;;;;;;;5087095;28;19920;-65
2023/02/28 02:02:19;;;;;;;;;;;;;;;;;;5088374;28;19924;-65
2023/02/28 02:04:45;;;;;;;;;;;;;;;;;;5088734;28;20031;-65
2023/02/28 02:07:10;;;;;;;;;;;;;;;;;;5089040;28;19924;-65
2023/02/28 02:09:36;;;;;;;;;;;;;;;;;;5086672;28;19923;-65
2023/02/28 02:12:02;;;;;;;;;;;;;;;;;;5072370;28;20015;-65
2023/02/28 02:14:28;;;;;;;;;;;;;;;;;;5083124;28;19924;-65
2023/02/28 02:16:54;;;;;;;;;;;;;;;;;;5101293;28;19931;-65
2023/02/28 02:19:20;;;;;;;;;;;;;;;;;;5104866;28;19919;-65
2023/02/28 02:21:46;;;;;;;;;;;;;;;;;;5089367;28;19924;-65
2023/02/28 02:24:12;;;;;;;;;;;;;;;;;;5089658;28;19959;-65
2023/02/28 02:26:37;;;;;;;;;;;;;;;;;;5088775;28;20277;-65
2023/02/28 02:29:03;;;;;;;;;;;;;;;;;;5073284;28;19920;-65
2023/02/28 02:31:29;;;;;;;;;;;;;;;;;;5091266;28;20027;-65
2023/02/28 02:33:55;;;;;;;;;;;;;;;;;;5087800;28;19959;-65
2023/02/28 02:36:21;;;;;;;;;;;;;;;;;;5090070;28;19969;-65
2023/02/28 02:38:47;;;;;;;;;;;;;;;;;;5085720;28;19920;-65
2023/02/28 02:41:13;;;;;;;;;;;;;;;;;;5090596;28;20573;-65
2023/02/28 02:43:39;;;;;;;;;;;;;;;;;;5090208;28;19935;-65
2023/02/28 02:46:05;;;;;;;;;;;;;;;;;;5089885;28;20085;-65
2023/02/28 02:48:31;;;;;;;;;;;;;;;;;;5089872;28;19920;-65
2023/02/28 02:50:57;;;;;;;;;;;;;;;;;;5090907;28;20376;-65
2023/02/28 02:53:23;;;;;;;;;;;;;;;;;;5088523;28;19928;-65
2023/02/28 02:55:52;;;;;;;;;;;;;;;;;;5072508;28;19927;-65
2023/02/28 02:58:18;;;;;;;;;;;;;;;;;;5089141;28;19939;-65
2023/02/28 03:00:44;;;;;;;;;;;;;;;;;;5090084;28;19923;-65
2023/02/28 03:03:10;;;;;;;;;;;;;;;;;;5098165;28;19920;-65
2023/02/28 03:05:36;;;;;;;;;;;;;;;;;;5091113;28;19931;-65
2023/02/28 03:08:02;;;;;;;;;;;;;;;;;;5088923;28;20006;-65
2023/02/28 03:10:28;;;;;;;;;;;;;;;;;;5088578;28;20014;-65
2023/02/28 03:12:54;;;;;;;;;;;;;;;;;;5089383;28;20003;-65
2023/02/28 03:15:20;;;;;;;;;;;;;;;;;;5092175;28;19924;-65
2023/02/28 03:17:46;;;;;;;;;;;;;;;;;;5090671;28;19928;-65
2023/02/28 03:20:12;;;;;;;;;;;;;;;;;;5103763;28;19950;-65
2023/02/28 03:22:38;;;;;;;;;;;;;;;;;;5111352;28;19950;-65
2023/02/28 03:25:04;;;;;;;;;;;;;;;;;;5098088;28;19920;-65
2023/02/28 03:27:30;;;;;;;;;;;;;;;;;;5087602;28;19977;-65
2023/02/28 03:29:55;;;;;;;;;;;;;;;;;;5090997;28;19920;-65
2023/02/28 03:32:21;;;;;;;;;;;;;;;;;;5090789;28;19927;-65
2023/02/28 03:34:47;;;;;;;;;;;;;;;;;;5089363;28;19924;-65
2023/02/28 03:37:13;;;;;;;;;;;;;;;;;;5091190;28;19974;-65
2023/02/28 03:39:39;;;;;;;;;;;;;;;;;;5087127;28;19974;-65
2023/02/28 03:42:05;;;;;;;;;;;;;;;;;;5082260;28;19921;-65
2023/02/28 03:44:31;;;;;;;;;;;;;;;;;;5069935;28;19920;-65
2023/02/28 03:46:57;;;;;;;;;;;;;;;;;;5090331;28;19986;-65
2023/02/28 03:49:23;;;;;;;;;;;;;;;;;;5089394;28;20062;-65
2023/02/28 03:51:48;;;;;;;;;;;;;;;;;;5090406;28;19920;-65
2023/02/28 03:54:14;;;;;;;;;;;;;;;;;;5090447;28;19931;-65
2023/02/28 03:56:40;;;;;;;;;;;;;;;;;;5090127;28;20391;-65
2023/02/28 03:59:06;;;;;;;;;;;;;;;;;;5090932;28;20033;-65
2023/02/28 04:01:32;;;;;;;;;;;;;;;;;;5089155;28;20457;-65
2023/02/28 04:03:58;;;;;;;;;;;;;;;;;;5087845;28;19924;-65
2023/02/28 04:06:24;;;;;;;;;;;;;;;;;;5090561;28;19924;-65
2023/02/28 04:08:50;;;;;;;;;;;;;;;;;;5092868;28;19924;-65
2023/02/28 04:11:16;;;;;;;;;;;;;;;;;;5094050;28;19924;-65
2023/02/28 04:13:41;;;;;;;;;;;;;;;;;;5095285;28;19985;-65
2023/02/28 04:16:11;;;;;;;;;;;;;;;;;;5091385;28;20075;-65
2023/02/28 04:18:37;;;;;;;;;;;;;;;;;;5090520;28;19920;-65
2023/02/28 04:21:03;;;;;;;;;;;;;;;;;;5091868;28;19965;-65
2023/02/28 04:23:29;;;;;;;;;;;;;;;;;;5091707;28;19924;-65
2023/02/28 04:25:55;;;;;;;;;;;;;;;;;;5090144;28;19934;-65
2023/02/28 04:28:21;;;;;;;;;;;;;;;;;;5089219;28;19927;-65
2023/02/28 04:30:47;;;;;;;;;;;;;;;;;;5090273;28;19927;-65
2023/02/28 04:33:13;;;;;;;;;;;;;;;;;;5068935;28;19928;-65
2023/02/28 04:35:39;;;;;;;;;;;;;;;;;;5066283;28;19978;-65
2023/02/28 04:38:04;;;;;;;;;;;;;;;;;;5070993;28;20362;-65
2023/02/28 04:40:30;;;;;;;;;;;;;;;;;;5069223;28;19928;-65
2023/02/28 04:42:56;;;;;;;;;;;;;;;;;;5070879;28;20396;-65
2023/02/28 04:45:22;;;;;;;;;;;;;;;;;;5070175;28;19924;-65
2023/02/28 04:47:48;;;;;;;;;;;;;;;;;;5071830;28;19982;-65
2023/02/28 04:50:14;;;;;;;;;;;;;;;;;;5067249;28;19928;-65
2023/02/28 04:52:40;;;;;;;;;;;;;;;;;;5071468;28;19924;-65
2023/02/28 04:55:06;;;;;;;;;;;;;;;;;;5069866;28;20497;-65
2023/02/28 04:57:32;;;;;;;;;;;;;;;;;;5067691;28;19967;-65
2023/02/28 04:59:57;;;;;;;;;;;;;;;;;;5077422;28;20004;-65
2023/02/28 05:02:24;;;;;;;;;;;;;;;;;;5073262;28;19924;-65
2023/02/28 05:04:49;;;;;;;;;;;;;;;;;;5068832;28;19924;-65
2023/02/28 05:07:15;;;;;;;;;;;;;;;;;;5065604;28;19965;-65
2023/02/28 05:09:41;;;;;;;;;;;;;;;;;;5066697;28;19929;-65
2023/02/28 05:12:07;;;;;;;;;;;;;;;;;;5064172;28;19924;-65
2023/02/28 05:14:33;;;;;;;;;;;;;;;;;;5067246;28;19925;-65
2023/02/28 05:16:59;;;;;;;;;;;;;;;;;;5064495;28;20465;-65
2023/02/28 05:19:25;;;;;;;;;;;;;;;;;;5078647;28;20002;-65
2023/02/28 05:21:51;;;;;;;;;;;;;;;;;;5074977;28;19941;-65
2023/02/28 05:24:22;;;;;;;;;;;;;;;;;;5070698;28;19935;-65
2023/02/28 05:26:48;;;;;;;;;;;;;;;;;;5072054;28;19924;-65
2023/02/28 05:29:14;;;;;;;;;;;;;;;;;;5069052;28;20271;-65
2023/02/28 05:31:40;;;;;;;;;;;;;;;;;;5071087;28;19928;-65
2023/02/28 05:34:05;;;;;;;;;;;;;;;;;;5073373;28;20550;-65
2023/02/28 05:36:31;;;;;;;;;;;;;;;;;;5071996;28;19950;-65
2023/02/28 05:38:57;;;;;;;;;;;;;;;;;;5069701;28;20003;-65
2023/02/28 05:41:23;;;;;;;;;;;;;;;;;;5066733;28;19928;-65
2023/02/28 05:43:49;;;;;;;;;;;;;;;;;;5071259;28;19950;-65
2023/02/28 05:46:15;;;;;;;;;;;;;;;;;;5072850;28;19951;-65
2023/02/28 05:48:41;;;;;;;;;;;;;;;;;;5072630;28;20362;-65
2023/02/28 05:51:07;;;;;;;;;;;;;;;;;;5074012;28;19925;-65
2023/02/28 05:53:33;;;;;;;;;;;;;;;;;;5072397;28;19924;-65
2023/02/28 05:55:59;;;;;;;;;;;;;;;;;;5068586;28;19975;-65
2023/02/28 05:58:30;;;;;;;;;;;;;;;;;;5071166;28;20267;-65
2023/02/28 06:00:56;;;;;;;;;;;;;;;;;;5071283;28;19985;-65
2023/02/28 06:03:22;;;;;;;;;;;;;;;;;;5073355;28;19921;-65
2023/02/28 06:05:48;;;;;;;;;;;;;;;;;;5070931;28;19978;-65
2023/02/28 06:08:13;;;;;;;;;;;;;;;;;;5070112;28;19929;-65
2023/02/28 06:10:39;;;;;;;;;;;;;;;;;;5074497;28;19920;-65
2023/02/28 06:13:05;;;;;;;;;;;;;;;;;;5085549;28;19920;-65
2023/02/28 06:15:31;;;;;;;;;;;;;;;;;;5068786;28;19928;-65
2023/02/28 06:17:57;;;;;;;;;;;;;;;;;;5081519;28;19924;-65
2023/02/28 06:20:23;;;;;;;;;;;;;;;;;;5067036;28;19967;-65
2023/02/28 06:22:51;;;;;;;;;;;;;;;;;;5070840;28;19924;-65
2023/02/28 06:25:17;;;;;;;;;;;;;;;;;;5088793;28;19924;-65
2023/02/28 06:27:43;;;;;;;;;;;;;;;;;;5066729;28;19966;-65
2023/02/28 06:30:08;;;;;;;;;;;;;;;;;;5067328;28;19925;-65
2023/02/28 06:32:35;;;;;;;;;;;;;;;;;;5070580;28;19924;-65
2023/02/28 06:35:01;;;;;;;;;;;;;;;;;;5059874;28;19924;-65
2023/02/28 06:37:27;;;;;;;;;;;;;;;;;;5050552;28;20389;-65
2023/02/28 06:39:53;;;;;;;;;;;;;;;;;;5040481;28;19925;-65
2023/02/28 06:42:19;;;;;;;;;;;;;;;;;;5048703;28;19944;-65
2023/02/28 06:44:45;;;;;;;;;;;;;;;;;;5050971;28;19931;-65
2023/02/28 06:47:11;;;;;;;;;;;;;;;;;;5051901;28;19925;-65
2023/02/28 06:49:38;;;;;;;;;;;;;;;;;;5053811;28;20344;-65
2023/02/28 06:52:04;;;;;;;;;;;;;;;;;;5049637;28;20138;-65
2023/02/28 06:54:30;;;;;;;;;;;;;;;;;;5052159;28;19929;-65
2023/02/28 06:56:56;;;;;;;;;;;;;;;;;;5066914;28;19929;-65
2023/02/28 06:59:22;;;;;;;;;;;;;;;;;;5051164;28;19925;-65
2023/02/28 07:01:48;;;;;;;;;;;;;;;;;;5051024;28;19924;-65
2023/02/28 07:04:14;;;;;;;;;;;;;;;;;;5036719;28;20457;-65
2023/02/28 07:06:40;;;;;;;;;;;;;;;;;;5051911;28;19921;-65
2023/02/28 07:09:06;;;;;;;;;;;;;;;;;;5061239;28;20024;-65
2023/02/28 07:11:32;;;;;;;;;;;;;;;;;;5051001;28;19925;-65
2023/02/28 07:13:57;;;;;;;;;;;;;;;;;;5054684;28;19924;-65
2023/02/28 07:16:23;;;;;;;;;;;;;;;;;;5042619;28;19925;-65
2023/02/28 07:18:49;;;;;;;;;;;;;;;;;;5048984;28;19992;-65
2023/02/28 07:21:15;;;;;;;;;;;;;;;;;;5048254;28;19924;-65
2023/02/28 07:23:41;;;;;;;;;;;;;;;;;;5043806;28;19944;-65
2023/02/28 07:26:07;;;;;;;;;;;;;;;;;;5045409;28;20359;-65
2023/02/28 07:28:33;;;;;;;;;;;;;;;;;;5048353;28;19932;-65
2023/02/28 07:30:59;;;;;;;;;;;;;;;;;;5049239;28;19939;-65
2023/02/28 07:33:25;;;;;;;;;;;;;;;;;;5063803;28;19924;-65
2023/02/28 07:35:51;;;;;;;;;;;;;;;;;;5047775;28;20333;-65
2023/02/28 07:38:17;;;;;;;;;;;;;;;;;;5051817;28;20517;-65
2023/02/28 07:40:43;;;;;;;;;;;;;;;;;;5052502;28;19925;-65
2023/02/28 07:43:08;;;;;;;;;;;;;;;;;;5055952;28;19927;-65
2023/02/28 07:45:34;;;;;;;;;;;;;;;;;;5074760;28;19928;-65
2023/02/28 07:48:00;;;;;;;;;;;;;;;;;;5051242;28;19925;-65
2023/02/28 07:50:30;;;;;;;;;;;;;;;;;;5065443;28;19986;-65
2023/02/28 07:52:56;;;;;;;;;;;;;;;;;;5056078;28;19924;-65
2023/02/28 07:55:22;;;;;;;;;;;;;;;;;;5058375;28;19947;-65
2023/02/28 07:57:48;;;;;;;;;;;;;;;;;;5055163;28;19936;-65
2023/02/28 08:00:14;;;;;;;;;;;;;;;;;;5052439;28;19928;-65
2023/02/28 08:02:39;;;;;;;;;;;;;;;;;;5050715;28;20015;-65
2023/02/28 08:05:05;;;;;;;;;;;;;;;;;;5051942;28;20039;-65
2023/02/28 08:07:33;;;;;;;;;;;;;;;;;;5051018;28;19932;-65
2023/02/28 08:09:59;;;;;;;;;;;;;;;;;;5052138;28;19924;-65
2023/02/28 08:12:25;;;;;;;;;;;;;;;;;;5053678;28;20373;-65
2023/02/28 08:14:50;;;;;;;;;;;;;;;;;;5047636;28;19928;-65
2023/02/28 08:17:16;;;;;;;;;;;;;;;;;;5052911;28;19929;-65
2023/02/28 08:19:42;;;;;;;;;;;;;;;;;;5047799;28;20695;-65
2023/02/28 08:22:08;;;;;;;;;;;;;;;;;;5050603;28;20043;-65
2023/02/28 08:24:34;;;;;;;;;;;;;;;;;;5053356;28;19928;-65
2023/02/28 08:27:00;;;;;;;;;;;;;;;;;;5051945;28;19963;-65
2023/02/28 08:29:26;;;;;;;;;;;;;;;;;;5047514;28;19928;-65
2023/02/28 08:31:52;;;;;;;;;;;;;;;;;;5048906;28;19932;-65
2023/02/28 08:34:18;;;;;;;;;;;;;;;;;;5049150;28;19925;-65
2023/02/28 08:36:47;;;;;;;;;;;;;;;;;;5049009;28;19942;-65
2023/02/28 08:39:13;;;;;;;;;;;;;;;;;;5047028;28;19927;-65
2023/02/28 08:41:39;;;;;;;;;;;;;;;;;;5053231;28;20489;-65
2023/02/28 08:44:04;;;;;;;;;;;;;;;;;;5052203;28;19943;-65
2023/02/28 08:46:30;;;;;;;;;;;;;;;;;;5050622;28;19920;-65
2023/02/28 08:48:59;;;;;;;;;;;;;;;;;;5052549;28;19928;-65
2023/02/28 08:51:28;;;;;;;;;;;;;;;;;;5051683;28;19955;-65
2023/02/28 08:53:54;;;;;;;;;;;;;;;;;;5050816;28;20344;-65
2023/02/28 08:56:20;;;;;;;;;;;;;;;;;;5044274;28;20024;-65
2023/02/28 08:58:46;;;;;;;;;;;;;;;;;;5051386;28;19933;-65
2023/02/28 09:01:12;;;;;;;;;;;;;;;;;;5048011;28;19979;-65
2023/02/28 09:03:38;;;;;;;;;;;;;;;;;;5047810;28;20320;-65
2023/02/28 09:06:04;;;;;;;;;;;;;;;;;;5054476;28;19927;-65
2023/02/28 09:08:30;;;;;;;;;;;;;;;;;;5059059;28;20379;-65
2023/02/28 09:10:57;;;;;;;;;;;;;;;;;;5062262;28;20003;-65
2023/02/28 09:13:23;;;;;;;;;;;;;;;;;;5048054;28;19932;-65
2023/02/28 09:15:49;;;;;;;;;;;;;;;;;;5039936;28;20372;-65
2023/02/28 09:18:15;;;;;;;;;;;;;;;;;;5039558;28;19929;-65
2023/02/28 09:20:41;;;;;;;;;;;;;;;;;;5053274;28;19928;-65
2023/02/28 09:23:07;;;;;;;;;;;;;;;;;;5049945;28;19982;-65
2023/02/28 09:25:33;;;;;;;;;;;;;;;;;;5053325;28;20321;-65
2023/02/28 09:27:59;;;;;;;;;;;;;;;;;;5053214;28;19928;-65
2023/02/28 09:30:25;;;;;;;;;;;;;;;;;;5051847;28;20382;-65
2023/02/28 09:32:51;;;;;;;;;;;;;;;;;;5055956;28;19955;-65
2023/02/28 09:35:17;;;;;;;;;;;;;;;;;;5093631;28;20396;-65
2023/02/28 09:37:43;;;;;;;;;;;;;;;;;;5093290;28;19920;-65
2023/02/28 09:40:09;;;;;;;;;;;;;;;;;;5093611;28;19977;-65
2023/02/28 09:42:35;;;;;;;;;;;;;;;;;;5075135;28;19927;-65
2023/02/28 09:45:01;;;;;;;;;;;;;;;;;;5093422;28;19928;-65
2023/02/28 09:47:27;;;;;;;;;;;;;;;;;;5098844;22;19924;31
2023/02/28 09:49:53;;;;;;;;;;;;;;;;;;5103145;28;19928;-65
2023/02/28 09:52:19;;;;;;;;;;;;;;;;;;5097733;28;20520;-65
2023/02/28 09:54:45;;;;;;;;;;;;;;;;;;5113217;28;19931;-65
2023/02/28 09:57:11;;;;;;;;;;;;;;;;;;5100490;28;19928;-65
2023/02/28 09:59:36;;;;;;;;;;;;;;;;;;5107037;28;19923;-65
2023/02/28 10:02:02;;;;;;;;;;;;;;;;;;5111700;28;19927;-65
2023/02/28 10:04:28;;;;;;;;;;;;;;;;;;5107109;28;19924;-65
2023/02/28 10:06:54;;;;;;;;;;;;;;;;;;5102329;28;19942;-65
2023/02/28 10:09:22;;;;;;;;;;;;;;;;;;5092113;28;19924;-66
2023/02/28 10:11:48;;;;;;;;;;;;;;;;;;5093175;28;19943;-65
2023/02/28 10:14:14;;;;;;;;;;;;;;;;;;5105369;28;19928;-65
2023/02/28 10:16:40;;;;;;;;;;;;;;;;;;5097896;28;19963;-65
2023/02/28 10:19:05;;;;;;;;;;;;;;;;;;5097945;28;19924;-65
2023/02/28 10:21:33;;;;;;;;;;;;;;;;;;5105625;28;20006;-65
2023/02/28 10:23:59;;;;;;;;;;;;;;;;;;5111099;28;19943;-65
2023/02/28 10:26:25;;;;;;;;;;;;;;;;;;5092437;28;20460;-65
2023/02/28 10:28:51;;;;;;;;;;;;;;;;;;5093817;28;19967;-65
2023/02/28 10:31:16;;;;;;;;;;;;;;;;;;5112263;28;20480;-65
2023/02/28 10:33:42;;;;;;;;;;;;;;;;;;5109449;28;19928;-65
2023/02/28 10:36:10;;;;;;;;;;;;;;;;;;5111851;28;19928;-65
2023/02/28 10:38:36;;;;;;;;;;;;;;;;;;5098450;28;19920;-65
2023/02/28 10:41:01;;;;;;;;;;;;;;;;;;5094040;28;19927;-65
2023/02/28 10:43:27;;;;;;;;;;;;;;;;;;5109122;28;20265;-65
2023/02/28 10:45:53;;;;;;;;;;;;;;;;;;5108447;28;19980;-65
2023/02/28 10:48:19;;;;;;;;;;;;;;;;;;5112030;28;19974;-65
2023/02/28 10:50:45;;;;;;;;;;;;;;;;;;5108904;28;20321;-65
2023/02/28 10:53:11;;;;;;;;;;;;;;;;;;5111002;28;19923;-65
2023/02/28 10:55:37;;;;;;;;;;;;;;;;;;5105664;28;19970;-65
2023/02/28 10:58:03;;;;;;;;;;;;;;;;;;5108508;28;19919;-65
2023/02/28 11:00:29;;;;;;;;;;;;;;;;;;5104904;28;19972;-65
2023/02/28 11:02:54;;;;;;;;;;;;;;;;;;5101640;28;19923;-65
2023/02/28 11:05:20;;;;;;;;;;;;;;;;;;5108169;28;19966;-65
2023/02/28 11:07:46;;;;;;;;;;;;;;;;;;5103971;28;20365;-67
2023/02/28 11:10:12;;;;;;;;;;;;;;;;;;5092708;28;19995;-65
2023/02/28 11:12:38;;;;;;;;;;;;;;;;;;5097155;28;20342;-65
2023/02/28 11:15:04;;;;;;;;;;;;;;;;;;5113303;28;19935;-65
2023/02/28 11:17:30;;;;;;;;;;;;;;;;;;5111393;28;19963;-65
2023/02/28 11:19:56;;;;;;;;;;;;;;;;;;5111846;28;19927;-64
2023/02/28 11:22:22;;;;;;;;;;;;;;;;;;5109193;28;19935;-64
2023/02/28 11:24:47;;;;;;;;;;;;;;;;;;5115152;28;19927;-64
2023/02/28 11:27:13;;;;;;;;;;;;;;;;;;5106614;28;19927;-64
2023/02/28 11:29:39;;;;;;;;;;;;;;;;;;5114391;28;19955;-64
2023/02/28 11:32:05;;;;;;;;;;;;;;;;;;5112288;28;19976;-65
2023/02/28 11:34:31;;;;;;;;;;;;;;;;;;5107417;28;19928;-64
2023/02/28 11:36:57;;;;;;;;;;;;;;;;;;5113233;28;19924;-64
2023/02/28 11:39:23;;;;;;;;;;;;;;;;;;5111459;28;20030;-65
2023/02/28 11:41:49;;;;;;;;;;;;;;;;;;5097414;28;19924;-65
2023/02/28 11:44:15;;;;;;;;;;;;;;;;;;5097022;28;19920;-65
2023/02/28 11:46:40;;;;;;;;;;;;;;;;;;5107033;28;19920;-64
2023/02/28 11:49:06;;;;;;;;;;;;;;;;;;5112984;28;19924;-64
2023/02/28 11:51:33;;;;;;;;;;;;;;;;;;5116148;28;20323;-64
2023/02/28 11:53:59;;;;;;;;;;;;;;;;;;5113043;28;21449;-64
2023/02/28 11:56:25;;;;;;;;;;;;;;;;;;5110681;28;19981;-64
2023/02/28 11:58:50;;;;;;;;;;;;;;;;;;5104607;28;19919;-65
2023/02/28 12:01:16;;;;;;;;;;;;;;;;;;5103797;28;20051;-65
2023/02/28 12:03:42;;;;;;;;;;;;;;;;;;5107931;28;20364;-64
2023/02/28 12:06:08;;;;;;;;;;;;;;;;;;5111700;28;19919;-65
2023/02/28 12:08:34;;;;;;;;;;;;;;;;;;5107852;28;19926;-65
2023/02/28 12:11:00;;;;;;;;;;;;;;;;;;5097521;28;20369;-65
2023/02/28 12:13:27;;;;;;;;;;;;;;;;;;5106984;28;19969;-65
2023/02/28 12:15:53;;;;;;;;;;;;;;;;;;5112698;28;20323;-65
2023/02/28 12:18:19;;;;;;;;;;;;;;;;;;5109029;28;19934;-65
2023/02/28 12:20:45;;;;;;;;;;;;;;;;;;5104966;28;19927;-65
2023/02/28 12:23:11;;;;;;;;;;;;;;;;;;5102382;28;19966;-65
2023/02/28 12:25:37;;;;;;;;;;;;;;;;;;5112014;28;20483;-65
2023/02/28 12:28:03;;;;;;;;;;;;;;;;;;5106363;28;19973;-65
2023/02/28 12:30:29;;;;;;;;;;;;;;;;;;5095544;28;19924;-65
2023/02/28 12:32:55;;;;;;;;;;;;;;;;;;5096557;28;19927;-65
2023/02/28 12:35:21;;;;;;;;;;;;;;;;;;5104892;28;20007;-65
2023/02/28 12:37:48;;;;;;;;;;;;;;;;;;5108650;28;20014;-65
2023/02/28 12:40:14;;;;;;;;;;;;;;;;;;5114740;28;19986;-65
2023/02/28 12:42:40;;;;;;;;;;;;;;;;;;5112678;28;20347;-64
2023/02/28 12:45:07;;;;;;;;;;;;;;;;;;5114373;28;20544;-64
2023/02/28 12:47:32;;;;;;;;;;;;;;;;;;5102086;28;19928;-65
2023/02/28 12:49:58;;;;;;;;;;;;;;;;;;5110933;28;19920;-64
2023/02/28 12:52:24;;;;;;;;;;;;;;;;;;5111715;28;19959;-64
2023/02/28 12:54:50;;;;;;;;;;;;;;;;;;5111662;28;19930;-64
2023/02/28 12:57:16;;;;;;;;;;;;;;;;;;5114087;28;19924;-65
2023/02/28 12:59:42;;;;;;;;;;;;;;;;;;5115013;28;20288;-65
2023/02/28 13:02:08;;;;;;;;;;;;;;;;;;5111617;28;19920;-65
2023/02/28 13:04:34;;;;;;;;;;;;;;;;;;5105911;28;19929;-65
2023/02/28 13:07:00;;;;;;;;;;;;;;;;;;5110419;28;20322;-65
2023/02/28 13:09:26;;;;;;;;;;;;;;;;;;5079129;28;20296;-65
2023/02/28 13:11:52;;;;;;;;;;;;;;;;;;5109848;28;20371;-65
2023/02/28 13:14:18;;;;;;;;;;;;;;;;;;5113164;28;19928;-65
2023/02/28 13:16:43;;;;;;;;;;;;;;;;;;5100552;28;19920;-65
2023/02/28 13:19:10;;;;;;;;;;;;;;;;;;5114409;28;19965;-65
2023/02/28 13:21:36;;;;;;;;;;;;;;;;;;5112281;28;19919;-65
2023/02/28 13:24:02;;;;;;;;;;;;;;;;;;5113122;28;19973;-65
2023/02/28 13:26:28;;;;;;;;;;;;;;;;;;5112486;28;19927;-65
2023/02/28 13:28:53;;;;;;;;;;;;;;;;;;5109340;28;19924;-65
2023/02/28 13:31:20;;;;;;;;;;;;;;;;;;5114346;28;19982;-65
2023/02/28 13:33:48;;;;;;;;;;;;;;;;;;5114741;28;19988;-65
2023/02/28 13:36:15;;;;;;;;;;;;;;;;;;5112621;28;19924;-65
2023/02/28 13:38:41;;;;;;;;;;;;;;;;;;5113690;28;20391;-65
2023/02/28 13:41:07;;;;;;;;;;;;;;;;;;5114517;28;19924;-65
2023/02/28 13:43:32;;;;;;;;;;;;;;;;;;5103016;28;19931;-63
2023/02/28 13:45:58;;;;;;;;;;;;;;;;;;5106302;28;19967;-63
2023/02/28 13:48:24;;;;;;;;;;;;;;;;;;5095138;28;19973;-63
2023/02/28 13:50:50;;;;;;;;;;;;;;;;;;5098098;28;20460;-64
2023/02/28 13:53:16;;;;;;;;;;;;;;;;;;5109228;28;19948;-64
2023/02/28 13:55:42;;;;;;;;;;;;;;;;;;5109263;28;19924;-64
2023/02/28 13:58:09;;;;;;;;;;;;;;;;;;5106283;28;19951;-64
2023/02/28 14:00:34;;;;;;;;;;;;;;;;;;5109848;28;19928;-65
2023/02/28 14:03:00;;;;;;;;;;;;;;;;;;5106092;28;19931;-65
2023/02/28 14:05:26;;;;;;;;;;;;;;;;;;5102211;28;19926;-65
2023/02/28 14:07:53;;;;;;;;;;;;;;;;;;5108162;28;20392;-65
2023/02/28 14:10:19;;;;;;;;;;;;;;;;;;5110625;28;19927;-65
2023/02/28 14:12:44;;;;;;;;;;;;;;;;;;5107201;28;19920;-65
2023/02/28 14:15:10;;;;;;;;;;;;;;;;;;5094740;28;20266;-65
2023/02/28 14:17:36;;;;;;;;;;;;;;;;;;5107417;28;19923;-65
2023/02/28 14:20:03;;;;;;;;;;;;;;;;;;5106510;28;19924;-65
2023/02/28 14:22:29;;;;;;;;;;;;;;;;;;5112046;28;19967;-65
2023/02/28 14:24:55;;;;;;;;;;;;;;;;;;5110163;28;19966;-64
2023/02/28 14:27:21;;;;;;;;;;;;;;;;;;5109300;28;20342;-65
2023/02/28 14:29:47;;;;;;;;;;;;;;;;;;5108888;28;20289;-64
2023/02/28 14:32:12;;;;;;;;;;;;;;;;;;5112297;28;19920;-64
2023/02/28 14:34:38;;;;;;;;;;;;;;;;;;5105420;28;19928;-65
2023/02/28 14:37:04;;;;;;;;;;;;;;;;;;5110304;28;19923;-65
2023/02/28 14:39:30;;;;;;;;;;;;;;;;;;5111073;28;20006;-65
2023/02/28 14:41:58;;;;;;;;;;;;;;;;;;5108939;28;19920;-65
2023/02/28 14:44:25;;;;;;;;;;;;;;;;;;5106214;28;20017;-65
2023/02/28 14:46:51;;;;;;;;;;;;;;;;;;5111003;28;20405;-65
2023/02/28 14:49:17;;;;;;;;;;;;;;;;;;5110003;28;19924;-65
2023/02/28 14:51:43;;;;;;;;;;;;;;;;;;5104754;28;19919;-65
2023/02/28 14:54:08;;;;;;;;;;;;;;;;;;5111748;28;19927;-65
2023/02/28 14:56:34;;;;;;;;;;;;;;;;;;5102638;28;19928;-65
2023/02/28 14:59:00;;;;;;;;;;;;;;;;;;5103742;28;20011;-65
2023/02/28 15:01:26;;;;;;;;;;;;;;;;;;5102810;28;19920;-65
2023/02/28 15:03:52;;;;;;;;;;;;;;;;;;5106909;28;19930;-65
2023/02/28 15:06:18;;;;;;;;;;;;;;;;;;5110350;28;19976;-64
2023/02/28 15:08:44;;;;;;;;;;;;;;;;;;5094916;28;20401;-64
2023/02/28 15:11:10;;;;;;;;;;;;;;;;;;5107352;28;19920;-64
2023/02/28 15:13:36;;;;;;;;;;;;;;;;;;5103764;28;20015;-64
2023/02/28 15:16:02;;;;;;;;;;;;;;;;;;5105303;28;19924;-64
2023/02/28 15:18:28;;;;;;;;;;;;;;;;;;5111555;28;19930;-64
2023/02/28 15:20:54;;;;;;;;;;;;;;;;;;5111693;28;19943;-64
2023/02/28 15:23:20;;;;;;;;;;;;;;;;;;5108024;28;19963;-64
2023/02/28 15:25:45;;;;;;;;;;;;;;;;;;5108569;28;19980;-65
2023/02/28 15:28:11;;;;;;;;;;;;;;;;;;5103323;28;19920;-64
2023/02/28 15:30:37;;;;;;;;;;;;;;;;;;5109237;28;19930;-64
2023/02/28 15:33:03;;;;;;;;;;;;;;;;;;5111270;28;19973;-64
2023/02/28 15:35:29;;;;;;;;;;;;;;;;;;5109545;28;19923;-64
2023/02/28 15:37:55;;;;;;;;;;;;;;;;;;5109899;28;19920;-64
2023/02/28 15:40:21;;;;;;;;;;;;;;;;;;5105757;28;19959;-64
2023/02/28 15:42:47;;;;;;;;;;;;;;;;;;5109221;28;19923;-64
2023/02/28 15:45:13;;;;;;;;;;;;;;;;;;5109016;28;20417;-64
2023/02/28 15:47:39;;;;;;;;;;;;;;;;;;5106560;28;19927;-64
2023/02/28 15:50:05;;;;;;;;;;;;;;;;;;5098289;28;20266;-65
2023/02/28 15:52:31;;;;;;;;;;;;;;;;;;5106107;28;19970;-65
2023/02/28 15:54:57;;;;;;;;;;;;;;;;;;5100678;28;19924;-65
2023/02/28 15:57:24;;;;;;;;;;;;;;;;;;5108815;28;19919;-64
2023/02/28 15:59:50;;;;;;;;;;;;;;;;;;5108520;28;20434;-64
2023/02/28 16:02:17;;;;;;;;;;;;;;;;;;5106790;28;20863;-65
2023/02/28 16:04:43;;;;;;;;;;;;;;;;;;5106566;28;20327;-65
2023/02/28 16:07:09;;;;;;;;;;;;;;;;;;5102356;28;19919;-63
2023/02/28 16:09:35;;;;;;;;;;;;;;;;;;5107231;28;19927;-63
2023/02/28 16:12:01;;;;;;;;;;;;;;;;;;5111420;27;20452;-64
2023/02/28 16:14:27;;;;;;;;;;;;;;;;;;5112667;28;19973;-64
2023/02/28 16:16:53;;;;;;;;;;;;;;;;;;5103442;28;20037;-64
2023/02/28 16:19:19;;;;;;;;;;;;;;;;;;5112396;28;19942;-64
2023/02/28 16:21:45;;;;;;;;;;;;;;;;;;5109984;28;19928;-64
2023/02/28 16:24:12;;;;;;;;;;;;;;;;;;5106839;28;22457;-64
2023/02/28 16:26:39;;;;;;;;;;;;;;;;;;5106740;28;19924;-63
2023/02/28 16:29:05;;;;;;;;;;;;;;;;;;5106535;28;19930;-64
2023/02/28 16:31:31;;;;;;;;;;;;;;;;;;5114749;28;20019;-63
2023/02/28 16:33:57;;;;;;;;;;;;;;;;;;5100413;28;19930;-63
2023/02/28 16:36:25;;;;;;;;;;;;;;;;;;5114164;28;19920;-63